Pagrindinis puslapis
METAR-TAF:

METAR-TAF

Oro uostai :

Ambonas, Indonezija

platuma: 03-42S, ilguma: 128-05E, Aukštis: 12 m

Dabartinis oras

Ataskaita buvo paskelbta 1 valandą ir 57 minutes, ne 07:00 UTC
Vėjas 8 kt iš Šiaurės/Šiaurės Vakarų, svyruoja nuo Vakarų ir Šiaurės
Temperatūra 30°C
Drėgmė 70%
Slėgis 1004 hPa
Matomumas 10 km arba daugiau
Mažai debesys ne aukštis 1600 ft, Liūtiniai kamuoliniai debesys.
Išsisklaidę debesys ne aukštis 1800 ft

METAR: WAPP 170700Z 33008KT 280V350 9999 FEW016CB SCT018 30/24 Q1004 NOSIG RMK CB TO SW

Laikas: 17:57 (08:57 UTC)

Prognozė

Ataskaita buvo paskelbta 3 valandos ir 57 minutes, ne 05:00 UTC
Prognozė galioja nuo 17 metu 06 UTC su 18 metu 06 UTC
Vėjas 6 kt iš Pietvakarių
Matomumas 10 km arba daugiau
Išsisklaidę debesys ne aukštis 1800 ft
Laikinai
nuo 17 metu 06 UTC su 17 metu 09 UTC
Matomumas: 7000 m
Su prošvaistėmis ne aukštis 1500 ft
lietus

TAF: WAPP 170500Z 1706/1806 23006KT 9999 SCT018 TEMPO 1706/1709 7000 -RA BKN015

Orai ataskaitas ir orų prognozės (METAR, TAF).

turimą stotys yra geltonos ir raudonos taškus žemėlapyje.

Perkelti pele per norėdami pamatyti stoties vardą.

Tada spustelėkite, norėdami matyti oro stebėjimo ir prognozės.

Norėdami pakeisti žemėlapį: spustelėkite ant žalios mygtukų su juodo kryžiaus žemyn,; žalią mygtuką su brūkšneliu, jei norite nutolinti; arba žalių rodyklių gretimoms žemėlapius.


METAR-TAF: